Time;durP1;ratioP1;P1;durP2;ratioP2;P2;SDS_P1;SDS_P2;PMS_P1;PMS_P2;Temp;Humidity;BMP_temperature;BMP_pressure;BME280_temperature;BME280_humidity;BME280_pressure;Samples;Min_cycle;Max_cycle;Signal;HPM_P1;HPM_P2
2020/12/24 00:00:23;;;;;;;6.40;4.07;;;4.30;99.90;2.20;96432.00;;;;6146090;23;20470;-69
2020/12/24 00:02:51;;;;;;;5.10;4.03;;;3.50;99.90;2.10;96435.00;;;;6146166;23;20747;-69
2020/12/24 00:05:18;;;;;;;6.93;3.73;;;3.30;99.90;2.00;96440.00;;;;6147172;23;20409;-69
2020/12/24 00:07:46;;;;;;;10.73;4.70;;;3.30;99.90;1.90;96429.00;;;;6149546;23;20217;-69
2020/12/24 00:10:13;;;;;;;5.93;4.03;;;3.20;99.90;1.80;96433.00;;;;6150491;23;20422;-69
2020/12/24 00:12:41;;;;;;;6.30;4.37;;;3.10;99.90;1.90;96431.00;;;;6150151;23;20414;-69
2020/12/24 00:15:09;;;;;;;4.63;3.00;;;3.10;99.90;1.90;96429.00;;;;6150439;23;20417;-69
2020/12/24 00:17:37;;;;;;;5.00;3.70;;;3.10;99.90;2.10;96438.00;;;;6149751;23;20441;-69
2020/12/24 00:20:06;;;;;;;5.20;4.13;;;3.10;99.90;2.20;96422.00;;;;6150086;23;20409;-69
2020/12/24 00:22:34;;;;;;;6.23;3.93;;;3.20;99.90;2.30;96442.00;;;;6150017;23;20429;-69
2020/12/24 00:25:01;;;;;;;7.57;4.80;;;3.20;99.90;2.10;96431.00;;;;6150429;23;20410;-69
2020/12/24 00:27:28;;;;;;;5.37;4.33;;;3.30;99.90;2.10;96428.00;;;;6149291;23;20414;-69
2020/12/24 00:29:56;;;;;;;8.27;4.10;;;3.30;99.90;2.00;96424.00;;;;6147609;23;20740;-69
2020/12/24 00:32:24;;;;;;;5.27;3.67;;;3.20;99.90;2.20;96427.00;;;;6150609;23;20213;-69
2020/12/24 00:34:52;;;;;;;5.93;5.30;;;3.20;99.90;2.10;96419.00;;;;6149929;23;20415;-69
2020/12/24 00:37:19;;;;;;;5.20;4.10;;;3.30;99.90;2.10;96414.00;;;;6150151;23;20202;-69
2020/12/24 00:39:47;;;;;;;9.07;4.17;;;3.20;99.90;2.10;96416.00;;;;6150078;23;20190;-69
2020/12/24 00:42:14;;;;;;;5.93;3.17;;;3.20;99.90;2.00;96402.00;;;;6150149;23;20430;-69
2020/12/24 00:44:42;;;;;;;7.50;3.33;;;3.20;99.90;1.60;96401.00;;;;6150597;23;20414;-69
2020/12/24 00:47:09;;;;;;;4.27;3.13;;;3.00;99.90;1.60;96408.00;;;;6149886;23;20412;-69
2020/12/24 00:49:37;;;;;;;3.47;3.17;;;2.90;99.90;1.60;96416.00;;;;6151251;23;20386;-69
2020/12/24 00:52:05;;;;;;;4.77;3.57;;;2.80;99.90;1.60;96420.00;;;;6150811;23;20436;-69
2020/12/24 00:54:32;;;;;;;4.97;3.33;;;2.80;99.90;1.60;96405.00;;;;6151501;23;20405;-69
2020/12/24 00:57:00;;;;;;;4.93;3.40;;;2.80;99.90;1.60;96400.00;;;;6150236;23;20450;-69
2020/12/24 00:59:27;;;;;;;3.27;2.93;;;2.80;99.90;1.60;96401.00;;;;6150991;23;20410;-69
2020/12/24 01:01:54;;;;;;;4.63;3.53;;;2.70;99.90;1.40;96407.00;;;;6151798;23;20776;-69
2020/12/24 01:04:22;;;;;;;4.90;3.80;;;2.70;99.90;1.40;96399.00;;;;6152734;23;20405;-69
2020/12/24 01:06:51;;;;;;;7.67;4.03;;;2.70;99.90;1.40;96389.00;;;;6152114;23;20731;-69
2020/12/24 01:09:18;;;;;;;5.17;4.00;;;2.60;99.90;1.70;96391.00;;;;6152447;23;20890;-69
2020/12/24 01:11:46;;;;;;;5.07;3.70;;;2.70;99.90;1.80;96389.00;;;;6151496;23;20782;-69
2020/12/24 01:14:13;;;;;;;4.23;3.07;;;2.80;99.90;2.20;96402.00;;;;6152110;23;20416;-69
2020/12/24 01:16:40;;;;;;;6.07;4.17;;;3.00;99.90;2.30;96405.00;;;;6151932;23;20449;-69
2020/12/24 01:19:08;;;;;;;4.63;3.40;;;3.10;99.90;2.30;96400.00;;;;6151379;23;20412;-69
2020/12/24 01:21:35;;;;;;;4.83;3.70;;;3.20;99.90;2.10;96397.00;;;;6151438;23;20429;-69
2020/12/24 01:24:04;;;;;;;4.20;3.80;;;3.20;99.90;2.20;96409.00;;;;6152332;23;20421;-69
2020/12/24 01:26:31;;;;;;;3.73;3.10;;;3.20;99.90;1.90;96397.00;;;;6152366;23;20413;-69
2020/12/24 01:28:58;;;;;;;3.47;3.00;;;3.20;99.90;1.80;96394.00;;;;6152146;23;20466;-69
2020/12/24 01:31:26;;;;;;;3.33;2.70;;;3.10;99.90;1.70;96389.00;;;;6152168;23;20440;-69
2020/12/24 01:33:53;;;;;;;6.23;3.10;;;3.10;99.90;1.70;96382.00;;;;6152575;23;20941;-69
2020/12/24 01:36:24;;;;;;;3.30;3.00;;;3.10;99.90;1.70;96392.00;;;;6152208;23;20794;-69
2020/12/24 01:38:51;;;;;;;3.60;3.07;;;2.90;99.90;1.50;96381.00;;;;6151341;23;20162;-69
2020/12/24 01:41:19;;;;;;;3.20;2.60;;;2.80;99.90;1.50;96377.00;;;;6151313;23;20432;-69
2020/12/24 01:43:47;;;;;;;3.60;3.27;;;2.80;99.90;1.60;96365.00;;;;6151586;23;20420;-69
2020/12/24 01:46:15;;;;;;;3.27;2.97;;;2.80;99.90;1.60;96356.00;;;;6151756;23;20409;-69
2020/12/24 01:48:42;;;;;;;2.93;2.70;;;2.70;99.90;1.70;96349.00;;;;6151204;23;20737;-69
2020/12/24 01:51:20;;;;;;;2.83;2.57;;;2.80;99.90;1.80;96347.00;;;;6151653;23;20421;-69
2020/12/24 01:53:48;;;;;;;3.37;2.70;;;2.80;99.90;1.70;96336.00;;;;6151845;23;20397;-68
2020/12/24 01:56:15;;;;;;;4.00;3.10;;;2.80;99.90;1.70;96334.00;;;;6151540;23;20417;-69
2020/12/24 01:58:47;;;;;;;2.47;2.10;;;2.90;99.90;1.80;96336.00;;;;6151776;23;20401;-69
2020/12/24 02:01:14;;;;;;;3.13;2.60;;;2.80;99.90;1.80;96339.00;;;;6151773;23;20427;-69
2020/12/24 02:03:42;;;;;;;4.60;3.43;;;2.90;99.90;1.90;96338.00;;;;6151976;23;20748;-68
2020/12/24 02:06:09;;;;;;;3.77;2.80;;;2.90;99.90;1.80;96337.00;;;;6152521;23;20405;-69
2020/12/24 02:08:39;;;;;;;3.17;2.33;;;2.90;99.90;1.80;96345.00;;;;6151526;23;20477;-69
2020/12/24 02:11:08;;;;;;;4.83;2.40;;;2.90;99.90;1.80;96347.00;;;;6152207;23;20872;-69
2020/12/24 02:13:36;;;;;;;2.70;2.20;;;2.90;99.90;1.80;96335.00;;;;6151831;23;20390;-69
2020/12/24 02:16:04;;;;;;;2.87;2.03;;;2.90;99.90;1.70;96313.00;;;;6151621;23;20933;-69
2020/12/24 02:18:31;;;;;;;1.90;1.80;;;2.90;99.90;1.70;96318.00;;;;6151420;23;20393;-69
2020/12/24 02:21:00;;;;;;;5.27;3.37;;;2.90;99.90;1.80;96308.00;;;;6151831;23;20452;-69
2020/12/24 02:23:27;;;;;;;4.77;2.07;;;2.90;99.90;1.90;96309.00;;;;6151550;23;20890;-69
2020/12/24 02:25:55;;;;;;;2.67;2.47;;;2.90;99.90;1.90;96306.00;;;;6152284;23;20410;-69
2020/12/24 02:28:22;;;;;;;2.50;2.30;;;3.00;99.90;1.90;96306.00;;;;6151271;23;20414;-69
2020/12/24 02:30:49;;;;;;;3.50;2.67;;;3.00;99.90;2.00;96299.00;;;;6151555;23;20436;-69
2020/12/24 02:33:19;;;;;;;3.63;2.80;;;3.00;99.90;1.80;96300.00;;;;6150788;23;20393;-69
2020/12/24 02:35:46;;;;;;;3.43;2.57;;;3.00;99.90;1.50;96293.00;;;;6151363;23;20412;-69
2020/12/24 02:38:14;;;;;;;2.67;2.40;;;2.90;99.90;1.50;96300.00;;;;6150434;23;20948;-69
2020/12/24 02:40:42;;;;;;;3.27;2.67;;;2.70;99.90;1.40;96307.00;;;;6151467;23;20421;-68
2020/12/24 02:43:09;;;;;;;3.37;2.83;;;2.80;99.90;1.40;96306.00;;;;6151001;23;20732;-69
2020/12/24 02:45:37;;;;;;;2.63;1.87;;;2.70;99.90;1.50;96305.00;;;;6152485;23;20390;-69
2020/12/24 02:48:04;;;;;;;2.07;1.87;;;2.70;99.90;1.60;96320.00;;;;6151085;23;20894;-69
2020/12/24 02:50:32;;;;;;;4.10;2.90;;;2.70;99.90;1.60;96303.00;;;;6151622;23;20771;-69
2020/12/24 02:52:59;;;;;;;4.80;2.27;;;2.70;99.90;1.80;96305.00;;;;6151282;23;20420;-69
2020/12/24 02:55:27;;;;;;;9.10;3.47;;;2.80;99.90;1.90;96296.00;;;;6151955;23;20410;-69
2020/12/24 02:57:55;;;;;;;4.93;3.13;;;2.80;99.90;1.90;96288.00;;;;6150310;23;20437;-69
2020/12/24 03:00:22;;;;;;;3.00;2.43;;;2.90;99.90;1.90;96289.00;;;;6151801;23;20390;-69
2020/12/24 03:02:49;;;;;;;5.17;3.23;;;2.90;99.90;2.00;96285.00;;;;6151680;23;20412;-69
2020/12/24 03:05:17;;;;;;;4.20;2.53;;;3.00;99.90;1.90;96282.00;;;;6151593;23;20401;-69
2020/12/24 03:07:49;;;;;;;3.20;2.87;;;3.00;99.90;1.80;96280.00;;;;6150625;23;20420;-69
2020/12/24 03:10:17;;;;;;;4.30;2.83;;;3.00;99.90;1.60;96281.00;;;;6151238;23;20197;-69
2020/12/24 03:12:46;;;;;;;4.33;2.03;;;3.00;99.90;1.60;96274.00;;;;6151100;23;20410;-69
2020/12/24 03:15:14;;;;;;;3.87;2.80;;;2.80;99.90;1.60;96263.00;;;;6151730;23;20409;-69
2020/12/24 03:17:41;;;;;;;3.77;2.20;;;2.80;99.90;1.60;96260.00;;;;6150637;23;20977;-69
2020/12/24 03:20:14;;;;;;;2.83;2.30;;;2.80;99.90;1.60;96262.00;;;;6151881;23;20477;-69
2020/12/24 03:22:42;;;;;;;2.90;2.10;;;2.80;99.90;1.60;96259.00;;;;6150574;23;20413;-69
2020/12/24 03:25:09;;;;;;;3.90;2.53;;;2.80;99.90;1.50;96241.00;;;;6150614;23;20421;-69
2020/12/24 03:27:37;;;;;;;4.17;2.90;;;2.80;99.90;1.80;96255.00;;;;6150488;23;20416;-69
2020/12/24 03:30:07;;;;;;;2.90;2.60;;;2.80;99.90;1.80;96247.00;;;;6150864;23;20858;-69
2020/12/24 03:32:35;;;;;;;2.50;2.17;;;2.90;99.90;1.90;96240.00;;;;6150952;23;20456;-69
2020/12/24 03:35:03;;;;;;;3.67;3.03;;;2.90;99.90;2.00;96240.00;;;;6150986;23;20420;-69
2020/12/24 03:37:31;;;;;;;2.77;2.43;;;2.90;99.90;2.10;96241.00;;;;6149577;23;20429;-69
2020/12/24 03:39:59;;;;;;;3.70;3.20;;;3.00;99.90;2.10;96250.00;;;;6151380;23;20413;-69
2020/12/24 03:42:27;;;;;;;2.97;2.63;;;3.10;99.90;2.10;96235.00;;;;6150092;23;20437;-69
2020/12/24 03:44:54;;;;;;;4.97;2.97;;;3.10;99.90;1.90;96241.00;;;;6150613;23;20401;-69
2020/12/24 03:47:22;;;;;;;3.07;2.23;;;3.10;99.90;2.00;96239.00;;;;6149804;23;20413;-69
2020/12/24 03:49:50;;;;;;;3.17;2.40;;;3.10;99.90;1.90;96232.00;;;;6151223;23;20906;-68
2020/12/24 03:52:17;;;;;;;3.47;2.47;;;3.10;99.90;1.90;96227.00;;;;6150714;23;20433;-69
2020/12/24 03:54:45;;;;;;;3.70;2.57;;;3.00;99.90;2.00;96236.00;;;;6151083;23;20405;-69
2020/12/24 03:57:12;;;;;;;3.13;2.73;;;3.10;99.90;2.00;96237.00;;;;6150034;23;20721;-69
2020/12/24 03:59:40;;;;;;;5.30;3.00;;;3.10;99.90;2.10;96246.00;;;;6151115;23;20405;-69
2020/12/24 04:02:07;;;;;;;3.43;2.70;;;3.10;99.90;2.10;96245.00;;;;6150622;23;20432;-69
2020/12/24 04:04:35;;;;;;;3.07;2.73;;;3.10;99.90;2.10;96253.00;;;;6150993;23;20790;-69
2020/12/24 04:07:03;;;;;;;3.40;3.10;;;3.20;99.90;2.10;96242.00;;;;6149779;23;20419;-69
2020/12/24 04:09:30;;;;;;;3.63;3.30;;;3.20;99.90;1.90;96248.00;;;;6150998;23;20421;-69
2020/12/24 04:11:58;;;;;;;4.33;3.37;;;3.10;99.90;1.90;96248.00;;;;6150097;23;20440;-69
2020/12/24 04:14:25;;;;;;;6.73;3.50;;;3.10;99.90;2.10;96249.00;;;;6150877;23;20393;-69
2020/12/24 04:16:53;;;;;;;3.33;3.03;;;3.10;99.90;2.10;96248.00;;;;6149324;23;20452;-68
2020/12/24 04:19:20;;;;;;;5.03;3.67;;;3.10;99.90;2.10;96245.00;;;;6150709;23;20410;-69
2020/12/24 04:21:49;;;;;;;4.57;3.63;;;3.20;99.90;2.10;96222.00;;;;6150641;23;20430;-69
2020/12/24 04:24:16;;;;;;;4.60;3.50;;;3.20;99.90;2.10;96235.00;;;;6150279;23;20410;-69
2020/12/24 04:26:43;;;;;;;4.20;3.80;;;3.10;99.90;2.00;96219.00;;;;6150052;23;20174;-69
2020/12/24 04:29:11;;;;;;;3.47;3.17;;;3.10;99.90;2.00;96215.00;;;;6150915;23;20408;-69
2020/12/24 04:31:42;;;;;;;6.03;2.83;;;3.10;99.90;1.90;96207.00;;;;6150976;23;20418;-68
2020/12/24 04:34:10;;;;;;;3.53;2.97;;;3.10;99.90;2.00;96209.00;;;;6151463;23;20186;-69
2020/12/24 04:36:38;;;;;;;2.83;2.50;;;3.10;99.90;1.90;96210.00;;;;6151543;23;20409;-69
2020/12/24 04:39:06;;;;;;;3.77;2.87;;;3.00;99.90;1.80;96211.00;;;;6152609;23;20783;-69
2020/12/24 04:41:35;;;;;;;6.43;3.73;;;3.00;99.90;1.80;96216.00;;;;6153135;23;20729;-69
2020/12/24 04:44:03;;;;;;;5.27;3.80;;;3.00;99.90;1.90;96214.00;;;;6152227;23;20786;-69
2020/12/24 04:46:32;;;;;;;6.03;4.80;;;3.00;99.90;1.90;96205.00;;;;6152895;23;20405;-69
2020/12/24 04:49:02;;;;;;;8.07;4.03;;;3.00;99.90;2.00;96199.00;;;;6152080;23;20412;-69
2020/12/24 04:51:30;;;;;;;4.07;3.00;;;3.00;99.90;2.00;96215.00;;;;6152060;23;20759;-69
2020/12/24 04:53:59;;;;;;;4.37;3.67;;;3.00;99.90;1.80;96212.00;;;;6153466;23;20389;-69
2020/12/24 04:56:27;;;;;;;3.17;2.80;;;3.00;99.90;1.60;96214.00;;;;6152103;23;20416;-68
2020/12/24 04:58:55;;;;;;;3.03;2.33;;;1.80;99.90;1.70;96209.00;;;;6150516;23;20413;-69
2020/12/24 05:01:22;;;;;;;6.03;3.53;;;2.90;99.90;1.80;96210.00;;;;6151767;23;20925;-69
2020/12/24 05:03:55;;;;;;;5.20;4.37;;;2.90;99.90;2.00;96212.00;;;;6153484;23;20390;-69
2020/12/24 05:06:23;;;;;;;4.20;3.70;;;3.00;99.90;2.00;96229.00;;;;6153503;23;20386;-69
2020/12/24 05:08:52;;;;;;;4.33;3.40;;;3.10;99.90;2.00;96229.00;;;;6152577;23;20448;-69
2020/12/24 05:11:27;;;;;;;4.97;3.90;;;3.00;99.90;2.00;96242.00;;;;6152141;23;20449;-69
2020/12/24 05:13:55;;;;;;;5.40;3.50;;;3.00;99.90;2.00;96244.00;;;;6153148;23;20385;-69
2020/12/24 05:16:23;;;;;;;6.30;3.33;;;3.10;99.90;2.00;96234.00;;;;6152603;23;20409;-69
2020/12/24 05:18:51;;;;;;;4.57;3.03;;;3.10;99.90;1.90;96241.00;;;;6151838;23;20449;-69
2020/12/24 05:21:33;;;;;;;3.57;3.23;;;3.10;99.90;2.00;96247.00;;;;6152436;23;20433;-69
2020/12/24 05:24:00;;;;;;;4.30;3.30;;;3.10;99.90;2.00;96241.00;;;;6152381;23;20416;-69
2020/12/24 05:26:31;;;;;;;3.23;2.90;;;3.10;99.90;2.00;96234.00;;;;6152812;23;20405;-68
2020/12/24 05:29:11;;;;;;;3.80;3.33;;;3.10;99.90;2.00;96234.00;;;;6152433;23;20394;-69
2020/12/24 05:31:39;;;;;;;3.63;2.90;;;3.10;99.90;2.00;96244.00;;;;6151941;23;20425;-69
2020/12/24 05:34:06;;;;;;;3.70;3.40;;;3.10;99.90;2.10;96221.00;;;;6152317;23;20829;-69
2020/12/24 05:36:34;;;;;;;3.30;3.00;;;3.10;99.90;2.00;96216.00;;;;6152243;23;20412;-69
2020/12/24 05:39:08;;;;;;;3.63;3.10;;;3.10;99.90;2.00;96223.00;;;;6152190;23;20398;-69
2020/12/24 05:41:38;;;;;;;4.43;2.97;;;3.10;99.90;2.10;96203.00;;;;6152248;23;20429;-69
2020/12/24 05:44:08;;;;;;;3.60;3.00;;;3.20;99.90;2.10;96200.00;;;;6152531;23;20394;-69
2020/12/24 05:46:46;;;;;;;3.87;2.90;;;3.20;99.90;2.10;96209.00;;;;6151752;23;20955;-69
2020/12/24 05:49:16;;;;;;;3.00;2.70;;;3.20;99.90;2.10;96201.00;;;;6150748;23;20429;-69
2020/12/24 05:51:56;;;;;;;3.90;2.40;;;3.20;99.90;1.90;96186.00;;;;6152134;23;20816;-68
2020/12/24 05:54:24;;;;;;;3.73;3.00;;;3.10;99.90;1.90;96194.00;;;;6152939;23;20185;-68
2020/12/24 05:56:54;;;;;;;2.40;2.20;;;3.20;99.90;2.00;96190.00;;;;6151582;23;20413;-68
2020/12/24 05:59:24;;;;;;;3.07;2.63;;;3.10;99.90;2.00;96192.00;;;;6151658;23;20738;-68
2020/12/24 06:02:05;;;;;;;4.20;3.10;;;3.10;99.90;2.10;96181.00;;;;6151772;23;20221;-68
2020/12/24 06:04:51;;;;;;;4.30;3.10;;;3.10;99.90;2.10;96183.00;;;;6151480;23;20394;-68
2020/12/24 06:07:32;;;;;;;4.17;3.10;;;3.10;99.90;2.10;96197.00;;;;6151262;23;20970;-68
2020/12/24 06:10:08;;;;;;;4.23;3.83;;;3.20;99.90;2.10;96172.00;;;;6151425;23;20917;-68
2020/12/24 06:12:51;;;;;;;5.53;4.33;;;3.20;99.90;2.10;96180.00;;;;6151287;23;20436;-68
2020/12/24 06:15:19;;;;;;;4.90;3.53;;;3.20;99.90;2.40;96173.00;;;;6151674;23;20390;-68
2020/12/24 06:17:50;;;;;;;4.40;3.77;;;3.30;99.90;2.40;96173.00;;;;6150788;23;20449;-68
2020/12/24 06:20:20;;;;;;;4.93;3.77;;;3.30;99.90;2.40;96194.00;;;;6151348;23;20882;-68
2020/12/24 06:22:48;;;;;;;4.10;3.50;;;3.40;99.90;2.30;96186.00;;;;6151809;23;20412;-68
2020/12/24 06:25:17;;;;;;;5.33;3.37;;;3.40;99.90;2.20;96198.00;;;;6151596;23;20406;-67
2020/12/24 06:27:50;;;;;;;3.57;3.20;;;3.40;99.90;2.20;96191.00;;;;6151706;23;20413;-69
2020/12/24 06:30:23;;;;;;;3.37;3.07;;;3.40;99.90;2.10;96200.00;;;;6151506;23;20394;-69
2020/12/24 06:32:53;;;;;;;5.40;3.77;;;3.30;99.90;2.10;96189.00;;;;6151645;23;20397;-68
2020/12/24 06:35:37;;;;;;;4.93;4.47;;;3.30;99.90;2.10;96192.00;;;;6152111;23;20389;-68
2020/12/24 06:38:06;;;;;;;4.23;3.10;;;3.30;99.90;2.00;96186.00;;;;6150268;23;20448;-68
2020/12/24 06:40:36;;;;;;;5.63;3.10;;;3.20;99.90;1.90;96188.00;;;;6150822;23;20170;-68
2020/12/24 06:43:05;;;;;;;3.63;3.33;;;3.10;99.90;1.90;96173.00;;;;6151429;23;20524;-68
2020/12/24 06:45:35;;;;;;;5.63;3.80;;;3.10;99.90;2.10;96167.00;;;;6151069;23;20410;-68
2020/12/24 06:48:22;;;;;;;8.10;4.70;;;3.10;99.90;2.20;96177.00;;;;6150167;23;20973;-68
2020/12/24 06:50:50;;;;;;;8.17;4.77;;;3.20;99.90;2.30;96176.00;;;;6150648;23;20430;-68
2020/12/24 06:53:29;;;;;;;8.67;5.83;;;3.20;99.90;2.30;96182.00;;;;6150275;23;20733;-68
2020/12/24 06:56:23;;;;;;;6.63;5.30;;;3.30;99.90;2.20;96177.00;;;;6150517;23;20389;-68
2020/12/24 06:58:55;;;;;;;9.63;7.03;;;3.30;99.90;2.30;96187.00;;;;6149527;23;20465;-68
2020/12/24 07:01:25;;;;;;;13.30;8.40;;;3.30;99.90;2.10;96193.00;;;;6150013;23;20445;-68
2020/12/24 07:03:55;;;;;;;13.07;8.17;;;3.30;99.90;2.10;96183.00;;;;6150349;23;20777;-69
2020/12/24 07:06:54;;;;;;;9.73;6.70;;;3.30;99.90;2.00;96182.00;;;;6150490;23;20289;-69
2020/12/24 07:09:44;;;;;;;8.23;5.83;;;3.20;99.90;2.00;96188.00;;;;6149493;23;20428;-68
2020/12/24 07:12:33;;;;;;;7.20;4.03;;;3.20;99.90;2.10;96194.00;;;;6150369;23;20217;-68
2020/12/24 07:15:24;;;;;;;6.83;5.13;;;3.20;99.90;2.10;96192.00;;;;6150221;23;20722;-68
2020/12/24 07:17:53;;;;;;;7.43;5.20;;;3.20;99.90;2.20;96198.00;;;;6148691;23;20433;-68
2020/12/24 07:20:21;;;;;;;5.17;4.60;;;3.30;99.90;2.10;96196.00;;;;6149139;23;20414;-68
2020/12/24 07:22:55;;;;;;;4.57;3.73;;;3.30;99.90;2.00;96202.00;;;;6150736;23;20394;-68
2020/12/24 07:25:24;;;;;;;6.73;3.73;;;3.20;99.90;2.10;96203.00;;;;6150119;23;20470;-68
2020/12/24 07:27:53;;;;;;;3.73;2.87;;;3.20;99.90;2.00;96206.00;;;;6149725;23;20410;-68
2020/12/24 07:30:22;;;;;;;4.47;3.87;;;3.20;99.90;2.00;96204.00;;;;6149491;23;20414;-68
2020/12/24 07:32:57;;;;;;;6.63;4.97;;;3.20;99.90;2.10;96215.00;;;;6148945;23;20887;-69
2020/12/24 07:35:26;;;;;;;6.03;4.17;;;3.20;99.90;2.20;96209.00;;;;6148698;23;20394;-68
2020/12/24 07:37:53;;;;;;;5.97;3.83;;;3.30;99.90;2.50;96214.00;;;;6148951;23;20472;-68
2020/12/24 07:40:31;;;;;;;9.33;8.53;;;3.30;99.90;2.50;96217.00;;;;6150019;23;20425;-68
2020/12/24 07:43:10;;;;;;;5.30;4.73;;;3.40;99.90;2.50;96222.00;;;;6150035;23;20725;-68
2020/12/24 07:45:38;;;;;;;5.47;4.37;;;3.50;99.90;2.30;96209.00;;;;6150749;23;20389;-68
2020/12/24 07:48:14;;;;;;;4.00;3.37;;;3.50;99.90;2.10;96201.00;;;;6150175;23;20417;-68
2020/12/24 07:50:42;;;;;;;5.70;4.37;;;3.40;99.90;2.10;96200.00;;;;6150294;23;20436;-68
2020/12/24 07:53:17;;;;;;;5.30;3.87;;;3.30;99.90;2.20;96212.00;;;;6149564;23;20527;-68
2020/12/24 07:55:44;;;;;;;4.57;4.03;;;3.30;99.90;2.40;96202.00;;;;6150155;23;20397;-68
2020/12/24 07:58:13;;;;;;;4.77;4.27;;;3.40;99.90;2.50;96189.00;;;;6150116;23;20456;-68
2020/12/24 08:00:47;;;;;;;6.47;5.00;;;3.40;99.90;2.60;96180.00;;;;6150135;23;20460;-68
2020/12/24 08:03:16;;;;;;;5.37;4.83;;;3.50;99.90;2.70;96176.00;;;;6150816;23;20170;-68
2020/12/24 08:05:43;;;;;;;6.37;5.30;;;3.60;99.90;2.80;96193.00;;;;6150549;23;20410;-68
2020/12/24 08:08:12;;;;;;;7.00;5.03;;;3.70;99.90;2.80;96182.00;;;;6150218;23;20192;-68
2020/12/24 08:10:40;;;;;;;7.93;5.50;;;3.70;99.90;2.90;96181.00;;;;6150615;23;20445;-68
2020/12/24 08:13:09;;;;;;;7.40;5.37;;;3.90;99.90;3.00;96176.00;;;;6150038;23;20205;-68
2020/12/24 08:15:40;;;;;;;6.53;5.00;;;3.90;99.90;3.10;96195.00;;;;6150283;23;20390;-68
2020/12/24 08:18:12;;;;;;;5.97;4.60;;;4.00;99.90;2.80;96186.00;;;;6149594;23;20198;-68
2020/12/24 08:20:46;;;;;;;6.63;4.03;;;4.00;99.90;2.80;96185.00;;;;6149854;23;20663;-68
2020/12/24 08:23:30;;;;;;;5.50;4.67;;;3.90;99.90;3.00;96202.00;;;;6150291;23;20193;-68
2020/12/24 08:25:59;;;;;;;6.43;5.20;;;4.00;99.90;3.10;96202.00;;;;6150613;23;20393;-68
2020/12/24 08:28:26;;;;;;;13.33;6.50;;;4.00;99.90;3.00;96189.00;;;;6150412;23;20414;-68
2020/12/24 08:30:56;;;;;;;11.70;7.20;;;4.00;99.90;3.00;96184.00;;;;6150420;23;20264;-68
2020/12/24 08:33:24;;;;;;;9.40;6.70;;;4.10;99.90;3.10;96192.00;;;;6150272;23;20525;-69
2020/12/24 08:35:52;;;;;;;11.13;6.83;;;4.10;99.90;3.10;96195.00;;;;6150242;23;20186;-68
2020/12/24 08:38:20;;;;;;;5.57;4.17;;;4.10;99.90;3.20;96181.00;;;;6150140;23;20210;-69
2020/12/24 08:40:47;;;;;;;6.70;4.83;;;4.20;99.90;3.40;96191.00;;;;6150640;23;20212;-68
2020/12/24 08:43:17;;;;;;;7.87;6.00;;;4.20;99.90;3.60;96192.00;;;;6150499;23;20185;-68
2020/12/24 08:45:47;;;;;;;8.13;5.67;;;4.40;99.90;3.80;96184.00;;;;6150644;23;20202;-69
2020/12/24 08:48:30;;;;;;;9.90;6.20;;;4.50;99.90;3.80;96188.00;;;;6150293;23;20217;-68
2020/12/24 08:50:58;;;;;;;6.13;4.97;;;4.70;99.90;3.90;96185.00;;;;6150480;23;20213;-68
2020/12/24 08:53:28;;;;;;;6.93;5.33;;;4.80;99.90;4.00;96189.00;;;;6151081;23;20186;-69
2020/12/24 08:55:55;;;;;;;5.60;4.67;;;4.80;99.90;4.10;96201.00;;;;6150967;23;20185;-69
2020/12/24 08:58:23;;;;;;;5.40;4.87;;;4.90;99.90;4.20;96199.00;;;;6150029;23;20218;-68
2020/12/24 09:00:50;;;;;;;58.83;33.90;;;5.00;99.90;4.30;96202.00;;;;6150489;23;20573;-68
2020/12/24 09:03:25;;;;;;;6.33;4.83;;;5.10;99.90;4.00;96208.00;;;;6150636;23;20275;-68
2020/12/24 09:05:53;;;;;;;7.23;4.20;;;5.10;99.90;4.10;96200.00;;;;6150895;23;20204;-68
2020/12/24 09:08:26;;;;;;;6.43;4.43;;;5.10;99.90;4.00;96196.00;;;;6147266;23;20214;-68
2020/12/24 09:10:53;;;;;;;3.53;3.00;;;5.10;99.90;4.00;96195.00;;;;6150956;23;20209;-68
2020/12/24 09:13:21;;;;;;;4.53;3.67;;;5.10;99.90;4.00;96209.00;;;;6150727;23;20166;-68
2020/12/24 09:15:49;;;;;;;5.00;4.10;;;5.10;99.90;4.10;96204.00;;;;6151272;23;20170;-68
2020/12/24 09:18:18;;;;;;;4.83;3.80;;;5.10;99.90;4.30;96219.00;;;;6150596;23;20214;-68
2020/12/24 09:20:45;;;;;;;5.50;4.70;;;5.10;99.90;4.40;96206.00;;;;6150611;23;20668;-68
2020/12/24 09:23:16;;;;;;;4.90;4.40;;;5.20;99.90;4.70;96219.00;;;;6151308;23;20578;-68
2020/12/24 09:25:45;;;;;;;30.67;17.17;;;5.30;99.90;4.90;96195.00;;;;6152443;23;20177;-68
2020/12/24 09:28:20;;;;;;;19.00;11.53;;;5.40;99.90;5.20;96194.00;;;;6152247;23;20197;-68
2020/12/24 09:30:48;;;;;;;8.07;6.57;;;5.70;99.90;5.40;96205.00;;;;6152485;23;20201;-68
2020/12/24 09:33:16;;;;;;;6.87;6.13;;;5.90;99.90;5.50;96209.00;;;;6151376;23;20197;-69
2020/12/24 09:35:44;;;;;;;6.90;5.67;;;6.10;99.90;5.70;96209.00;;;;6151558;23;20486;-68
2020/12/24 09:38:12;;;;;;;6.37;5.70;;;6.20;99.90;5.70;96206.00;;;;6150529;23;20209;-68
2020/12/24 09:40:40;;;;;;;15.43;8.53;;;6.30;99.90;5.80;96196.00;;;;6152441;23;20224;-68
2020/12/24 09:43:09;;;;;;;11.73;7.47;;;6.40;99.90;5.80;96194.00;;;;6151006;23;20545;-69
2020/12/24 09:45:37;;;;;;;6.83;5.43;;;6.60;99.90;5.80;96190.00;;;;6149366;23;20170;-69
2020/12/24 09:48:05;;;;;;;5.97;5.10;;;6.60;99.90;5.90;96192.00;;;;6147797;23;20197;-68
2020/12/24 09:50:34;;;;;;;6.53;5.40;;;6.70;99.90;5.90;96182.00;;;;6150941;23;20197;-68
2020/12/24 09:53:02;;;;;;;8.30;5.80;;;6.70;99.90;5.90;96190.00;;;;6150425;23;20186;-69
2020/12/24 09:55:31;;;;;;;10.60;6.70;;;6.70;99.90;6.00;96182.00;;;;6151264;23;20186;-68
2020/12/24 09:57:58;;;;;;;6.93;5.50;;;6.80;99.90;6.10;96184.00;;;;6147736;23;20208;-68
2020/12/24 10:00:25;;;;;;;9.10;5.80;;;6.80;99.90;6.20;96179.00;;;;6150154;23;20178;-68
2020/12/24 10:02:53;;;;;;;7.00;5.97;;;6.90;99.90;6.20;96181.00;;;;6151273;23;20193;-68
2020/12/24 10:05:20;;;;;;;7.60;5.47;;;7.00;99.90;6.10;96167.00;;;;6151304;23;20182;-69
2020/12/24 10:07:48;;;;;;;5.67;5.07;;;7.00;99.90;6.10;96161.00;;;;6150651;23;20194;-69
2020/12/24 10:10:15;;;;;;;6.47;4.73;;;7.00;99.90;6.00;96164.00;;;;6150646;23;20194;-68
2020/12/24 10:12:44;;;;;;;7.50;5.80;;;7.00;99.90;6.10;96167.00;;;;6152092;23;20182;-68
2020/12/24 10:15:12;;;;;;;8.17;5.03;;;7.00;99.90;6.10;96158.00;;;;6152595;23;20189;-69
2020/12/24 10:17:39;;;;;;;8.20;5.27;;;7.00;99.90;6.20;96158.00;;;;6151641;23;20174;-68
2020/12/24 10:20:06;;;;;;;8.60;5.30;;;7.00;99.90;6.10;96163.00;;;;6152265;23;20185;-68
2020/12/24 10:22:35;;;;;;;5.87;5.30;;;7.00;99.90;6.20;96156.00;;;;6151815;23;20217;-69
2020/12/24 10:25:02;;;;;;;5.13;4.60;;;7.10;99.90;6.30;96153.00;;;;6151636;23;20175;-68
2020/12/24 10:27:30;;;;;;;5.50;4.90;;;7.10;99.90;6.40;96151.00;;;;6151174;23;20183;-69
2020/12/24 10:29:58;;;;;;;9.13;5.67;;;7.10;99.90;6.40;96173.00;;;;6151977;23;20167;-69
2020/12/24 10:32:26;;;;;;;12.10;5.33;;;7.20;99.90;6.30;96167.00;;;;6151080;23;20722;-68
2020/12/24 10:34:53;;;;;;;6.00;5.27;;;7.20;99.90;6.30;96173.00;;;;6150302;23;20663;-69
2020/12/24 10:37:21;;;;;;;7.20;5.07;;;7.20;99.90;6.30;96174.00;;;;6150627;23;20190;-69
2020/12/24 10:39:48;;;;;;;8.57;5.47;;;7.20;99.90;6.30;96173.00;;;;6151961;23;20209;-68
2020/12/24 10:42:17;;;;;;;7.07;5.57;;;7.50;99.90;6.30;96163.00;;;;6151261;23;20206;-69
2020/12/24 10:44:45;;;;;;;9.53;5.30;;;7.20;99.90;6.40;96163.00;;;;6151637;23;20181;-69
2020/12/24 10:47:13;;;;;;;8.33;5.20;;;7.20;99.90;6.40;96148.00;;;;6150702;23;20447;-68
2020/12/24 10:49:41;;;;;;;10.33;5.57;;;7.20;99.90;6.30;96130.00;;;;6151839;23;20181;-69
2020/12/24 10:52:11;;;;;;;6.17;4.80;;;7.20;99.90;6.40;96136.00;;;;6151188;23;20217;-69
2020/12/24 10:54:39;;;;;;;5.23;4.73;;;7.30;99.90;6.50;96131.00;;;;6152043;23;20189;-69
2020/12/24 10:57:06;;;;;;;5.40;4.30;;;7.30;99.90;6.50;96125.00;;;;6151075;23;20189;-69
2020/12/24 10:59:34;;;;;;;14.97;9.43;;;7.30;99.90;6.60;96127.00;;;;6149979;23;20220;-69
2020/12/24 11:02:01;;;;;;;10.90;7.77;;;7.40;99.90;6.60;96136.00;;;;6150971;23;20209;-69
2020/12/24 11:04:30;;;;;;;7.47;5.73;;;7.40;99.90;6.60;96136.00;;;;6150757;23;20249;-68
2020/12/24 11:06:58;;;;;;;6.23;4.93;;;7.50;99.90;6.50;96137.00;;;;6149027;23;20171;-69
2020/12/24 11:09:26;;;;;;;6.17;4.70;;;7.40;99.90;6.50;96129.00;;;;6151217;23;20221;-69
2020/12/24 11:11:53;;;;;;;8.70;7.03;;;7.40;99.90;6.40;96127.00;;;;6150987;23;20221;-69
2020/12/24 11:14:20;;;;;;;6.57;5.17;;;7.40;99.90;6.40;96124.00;;;;6152131;23;20170;-68
2020/12/24 11:16:48;;;;;;;9.87;6.23;;;7.40;99.90;6.40;96116.00;;;;6151251;23;20517;-68
2020/12/24 11:19:16;;;;;;;6.67;5.77;;;7.30;99.90;6.30;96092.00;;;;6150624;23;20186;-68